Triplett, Missouri
Current Conditions -  °F | °C
As of 4:55 PM on Thursday 23 Oct 2014 (Local Time) from KVER Reporting Station
Overcast Overcast  
Wind Chill: 20°   Ceiling: 4200
Heat Index: 20°   Visibility: 10mi
Dew Point: 13°   Wind: 0mph
Humidity: 66%   Direction: NA
Pressure: 30.06"   Gusts: NA
Location:  39.5°N, 93.19°W
Report Text: KVER 232155Z AUTO 00000KT 10SM SCT029 BKN042 OVC050 20/13 A3006 RMK AO2 T01970132
Loading
Personal Weather Stations






























Interactive Weather Map
Tropical Storm Tracking
New forecast layout! Learn more

10-Day Weather Forecast

Advertisements
Track Severe Weather on mobile